createdAt,value
2022-08-09T00:04:10.778Z,98787.56
2022-08-09T00:07:49.656Z,98779.00
2022-08-09T00:12:03.536Z,98767.53
2022-08-09T00:16:06.815Z,98771.44
2022-08-09T00:20:12.075Z,98775.34
2022-08-09T00:24:14.904Z,98776.28
2022-08-09T00:28:17.097Z,98770.28
2022-08-09T00:32:26.820Z,98768.81
2022-08-09T00:36:30.672Z,98773.63
2022-08-09T00:40:33.002Z,98774.56
2022-08-09T00:44:40.541Z,98772.44
2022-08-09T00:48:47.553Z,98774.72
2022-08-09T00:52:55.098Z,98767.09
2022-08-09T00:56:57.154Z,98776.00
2022-08-09T01:00:59.402Z,98778.97
2022-08-09T01:05:14.017Z,98776.56
2022-08-09T01:09:48.477Z,98771.63
2022-08-09T01:14:01.639Z,98771.84
2022-08-09T01:18:14.202Z,98772.66
2022-08-09T01:22:25.285Z,98777.13
2022-08-09T01:26:54.726Z,98776.06
2022-08-09T01:31:00.557Z,98770.06
2022-08-09T01:35:29.123Z,98768.91
2022-08-09T01:39:35.681Z,98764.97
2022-08-09T01:43:47.962Z,98771.03
2022-08-09T01:47:56.024Z,98769.44
2022-08-09T01:52:07.301Z,98760.44
2022-08-09T01:56:12.331Z,98770.25
2022-08-09T02:00:34.974Z,98771.44
2022-08-09T02:04:40.595Z,98764.69
2022-08-09T02:08:57.997Z,98772.25
2022-08-09T02:13:06.184Z,98777.53
2022-08-09T02:17:29.365Z,98777.31
2022-08-09T02:21:39.444Z,98783.22
2022-08-09T02:25:52.467Z,98782.28
2022-08-09T02:29:57.262Z,98784.00
2022-08-09T02:34:41.345Z,98777.94
2022-08-09T02:38:54.552Z,98777.72
2022-08-09T02:43:03.013Z,98775.28
2022-08-09T02:47:11.263Z,98786.81
2022-08-09T02:51:18.317Z,98780.66
2022-08-09T02:55:46.710Z,98784.38
2022-08-09T03:00:20.801Z,98766.13
2022-08-09T03:04:20.012Z,98768.16
2022-08-09T03:08:45.626Z,98768.38
2022-08-09T03:12:51.901Z,98769.22
2022-08-09T03:16:55.449Z,98764.31
2022-08-09T03:21:02.932Z,98769.78
2022-08-09T03:25:26.731Z,98766.53
2022-08-09T03:29:57.388Z,98777.09
2022-08-09T03:33:58.798Z,98779.53
2022-08-09T03:38:06.193Z,98785.94
2022-08-09T03:42:12.845Z,98789.69
2022-08-09T03:46:29.223Z,98789.91
2022-08-09T03:50:35.043Z,98799.44
2022-08-09T03:54:40.460Z,98803.72
2022-08-09T03:58:43.209Z,98799.06
2022-08-09T04:02:52.718Z,98799.44
2022-08-09T04:06:58.082Z,98788.66
2022-08-09T04:11:01.396Z,98799.22
2022-08-09T04:15:11.442Z,98802.16
2022-08-09T04:19:15.954Z,98799.91
2022-08-09T04:23:32.637Z,98806.63
2022-08-09T04:27:41.079Z,98806.06
2022-08-09T04:31:47.721Z,98809.31
2022-08-09T04:35:51.044Z,98815.34
2022-08-09T04:39:54.863Z,98818.97
2022-08-09T04:44:06.665Z,98825.25
2022-08-09T04:48:16.997Z,98826.06
2022-08-09T04:52:29.728Z,98831.75
2022-08-09T04:56:37.326Z,98820.34
2022-08-09T05:00:48.546Z,98825.22
2022-08-09T05:04:55.158Z,98827.53
2022-08-09T05:09:00.462Z,98837.81
2022-08-09T05:13:06.009Z,98842.75
2022-08-09T05:17:15.220Z,98842.59
2022-08-09T05:21:46.610Z,98842.44
2022-08-09T05:25:51.055Z,98842.63
2022-08-09T05:29:53.338Z,98846.63
2022-08-09T05:33:56.325Z,98850.19
2022-08-09T05:37:59.223Z,98849.25
2022-08-09T05:42:04.651Z,98852.28
2022-08-09T05:46:08.057Z,98848.31
2022-08-09T05:50:35.156Z,98851.69
2022-08-09T05:54:35.144Z,98856.97
2022-08-09T05:58:37.218Z,98845.72
2022-08-09T06:02:46.535Z,98861.16
2022-08-09T06:06:49.868Z,98863.59
2022-08-09T06:10:54.957Z,98857.56
2022-08-09T06:15:00.912Z,98860.78
2022-08-09T06:19:04.365Z,98865.47
2022-08-09T06:23:08.365Z,98863.81
2022-08-09T06:27:15.793Z,98866.47
2022-08-09T06:31:18.058Z,98874.72
2022-08-09T06:35:55.746Z,98875.97
2022-08-09T06:40:00.648Z,98873.63
2022-08-09T06:44:06.038Z,98877.91
2022-08-09T06:48:09.178Z,98879.09
2022-08-09T06:52:12.280Z,98875.94
2022-08-09T06:56:18.064Z,98880.00
2022-08-09T07:00:50.248Z,98876.00
2022-08-09T07:04:42.347Z,98877.00
2022-08-09T07:08:44.966Z,98881.09
2022-08-09T07:12:57.254Z,98881.72
2022-08-09T07:17:00.000Z,98880.63
2022-08-09T07:21:02.084Z,98887.19
2022-08-09T07:25:05.520Z,98888.72
2022-08-09T07:29:13.441Z,98891.91
2022-08-09T07:33:16.702Z,98884.78
2022-08-09T07:37:18.867Z,98894.44
2022-08-09T07:41:24.333Z,98896.13
2022-08-09T07:45:39.662Z,98894.28
2022-08-09T07:50:04.278Z,98902.16
2022-08-09T07:54:08.573Z,98898.97
2022-08-09T07:58:14.333Z,98896.28
2022-08-09T08:02:19.181Z,98897.03
2022-08-09T08:06:21.644Z,98889.41
2022-08-09T08:10:34.743Z,98888.97
2022-08-09T08:14:37.805Z,98894.81
2022-08-09T08:18:39.893Z,98888.88
2022-08-09T08:22:48.581Z,98889.53
2022-08-09T08:26:56.079Z,98894.19
2022-08-09T08:30:58.646Z,98889.94
2022-08-09T08:35:00.917Z,98881.06
2022-08-09T08:39:04.270Z,98878.56
2022-08-09T08:43:13.161Z,98878.44
2022-08-09T08:47:15.929Z,98874.31
2022-08-09T08:51:18.368Z,98879.06
2022-08-09T08:55:23.567Z,98880.63
2022-08-09T08:59:40.929Z,98870.50
2022-08-09T09:03:50.495Z,98869.78
2022-08-09T09:07:54.101Z,98872.06
2022-08-09T09:11:59.231Z,98874.41
2022-08-09T09:16:01.696Z,98881.44
2022-08-09T09:20:11.009Z,98873.84
2022-08-09T09:24:21.948Z,98865.22
2022-08-09T09:29:01.669Z,98864.81
2022-08-09T09:33:15.729Z,98871.97
2022-08-09T09:37:31.806Z,98866.16
2022-08-09T09:41:48.661Z,98865.06
2022-08-09T09:45:57.516Z,98864.84
2022-08-09T09:50:23.011Z,98858.66
2022-08-09T09:54:25.536Z,98865.09
2022-08-09T09:58:49.089Z,98862.28
2022-08-09T10:02:51.266Z,98864.72
2022-08-09T10:06:54.453Z,98867.56
2022-08-09T10:10:56.633Z,98862.19
2022-08-09T10:15:50.941Z,98857.22
2022-08-09T10:19:39.477Z,98853.44
2022-08-09T10:23:43.081Z,98869.81
2022-08-09T10:27:56.887Z,98860.47
2022-08-09T10:32:28.601Z,98863.91
2022-08-09T10:36:22.843Z,98867.16
2022-08-09T10:40:33.260Z,98857.81
2022-08-09T10:44:39.925Z,98855.09
2022-08-09T10:48:51.359Z,98865.88
2022-08-09T10:53:10.364Z,98858.66
2022-08-09T10:57:14.228Z,98849.31
2022-08-09T11:03:11.318Z,98845.75
2022-08-09T11:06:20.986Z,98850.25
2022-08-09T11:10:47.303Z,98848.81
2022-08-09T11:14:58.574Z,98848.63
2022-08-09T11:19:01.179Z,98837.00
2022-08-09T11:23:07.091Z,98854.13
2022-08-09T11:28:03.745Z,98842.69
2022-08-09T11:31:53.158Z,98842.84
2022-08-09T11:35:59.500Z,98846.47
2022-08-09T11:40:05.951Z,98838.75
2022-08-09T11:44:08.669Z,98839.41
2022-08-09T11:48:26.466Z,98846.06
2022-08-09T11:52:59.155Z,98841.09
2022-08-09T11:56:51.181Z,98828.75
2022-08-09T12:01:08.987Z,98832.94
2022-08-09T12:05:22.849Z,98833.28
2022-08-09T12:09:27.996Z,98829.25
2022-08-09T12:14:09.407Z,98819.09
2022-08-09T12:18:01.538Z,98816.03
2022-08-09T12:22:05.591Z,98812.28
2022-08-09T12:26:07.670Z,98813.56
2022-08-09T12:30:35.538Z,98813.63
2022-08-09T12:34:42.213Z,98806.47
2022-08-09T12:38:45.064Z,98806.06
2022-08-09T12:42:50.489Z,98817.25
2022-08-09T12:46:52.996Z,98812.66
2022-08-09T12:50:55.927Z,98798.69
2022-08-09T12:56:13.099Z,98791.44
2022-08-09T12:59:57.626Z,98789.63
2022-08-09T13:03:58.807Z,98791.94
2022-08-09T13:08:17.377Z,98783.09
2022-08-09T13:12:23.589Z,98787.72
2022-08-09T13:16:45.899Z,98790.75
2022-08-09T13:21:03.875Z,98790.38
2022-08-09T13:25:11.860Z,98773.56
2022-08-09T13:29:20.612Z,98781.72
2022-08-09T13:33:52.688Z,98772.03
2022-08-09T13:37:55.950Z,98757.97
2022-08-09T13:42:12.232Z,98757.38
2022-08-09T13:47:14.440Z,98763.00
2022-08-09T13:50:36.907Z,98771.59
2022-08-09T13:54:41.778Z,98750.84
2022-08-09T13:58:53.248Z,98750.81
2022-08-09T14:03:04.462Z,98740.84
2022-08-09T14:07:17.665Z,98736.00
2022-08-09T14:11:20.181Z,98739.84
2022-08-09T14:16:09.710Z,98740.19
2022-08-09T14:19:44.368Z,98758.72
2022-08-09T14:23:54.725Z,98752.81
2022-08-09T14:27:59.046Z,98747.53
2022-08-09T14:32:05.837Z,98745.28
2022-08-09T14:36:19.628Z,98738.31
2022-08-09T14:40:38.883Z,98729.84
2022-08-09T14:44:48.827Z,98730.78
2022-08-09T14:49:02.797Z,98730.84
2022-08-09T14:53:11.475Z,98730.22
2022-08-09T14:57:14.871Z,98728.06
2022-08-09T15:01:20.610Z,98726.97
2022-08-09T15:05:22.795Z,98727.97
2022-08-09T15:10:03.128Z,98720.78
2022-08-09T15:13:48.156Z,98720.66
2022-08-09T15:17:58.760Z,98734.63
2022-08-09T15:22:02.557Z,98733.25
2022-08-09T15:26:05.188Z,98716.31
2022-08-09T15:30:48.280Z,98722.44
2022-08-09T15:34:35.618Z,98716.25
2022-08-09T15:38:37.884Z,98716.63
2022-08-09T15:42:42.603Z,98713.63
2022-08-09T15:46:44.793Z,98709.94
2022-08-09T15:50:50.393Z,98710.94
2022-08-09T15:54:52.488Z,98704.06
2022-08-09T15:58:54.645Z,98696.94
2022-08-09T16:02:57.085Z,98695.56
2022-08-09T16:06:59.193Z,98691.50
2022-08-09T16:11:04.203Z,98694.84
2022-08-09T16:16:10.350Z,98691.50
2022-08-09T16:19:36.659Z,98690.81
2022-08-09T16:23:38.980Z,98687.13
2022-08-09T16:27:41.086Z,98696.53
2022-08-09T16:32:18.317Z,98698.69
2022-08-09T16:36:13.130Z,98703.09
2022-08-09T16:40:29.557Z,98701.44
2022-08-09T16:44:42.058Z,98697.63
2022-08-09T16:48:53.774Z,98704.34
2022-08-09T16:53:02.026Z,98707.66
2022-08-09T16:57:04.140Z,98699.50
2022-08-09T17:01:07.392Z,98699.78
2022-08-09T17:05:12.188Z,98704.78
2022-08-09T17:09:45.403Z,98706.09
2022-08-09T17:13:37.436Z,98698.97
2022-08-09T17:17:50.326Z,98707.97
2022-08-09T17:21:55.794Z,98709.84
2022-08-09T17:26:01.751Z,98710.75
2022-08-09T17:30:09.502Z,98718.59
2022-08-09T17:34:59.748Z,98716.97
2022-08-09T17:38:39.481Z,98724.94
2022-08-09T17:42:43.244Z,98724.16
2022-08-09T17:46:49.145Z,98725.31
2022-08-09T17:50:59.327Z,98721.84
2022-08-09T17:55:12.203Z,98717.63
2022-08-09T17:59:16.922Z,98722.38
2022-08-09T18:03:19.155Z,98728.91
2022-08-09T18:07:24.089Z,98731.78
2022-08-09T18:11:29.517Z,98745.34
2022-08-09T18:16:05.433Z,98736.91
2022-08-09T18:20:59.880Z,98749.75
2022-08-09T18:24:15.852Z,98743.13
2022-08-09T18:30:34.645Z,98746.19
2022-08-09T18:32:40.012Z,98747.59
2022-08-09T18:36:43.853Z,98744.63
2022-08-09T18:40:53.427Z,98751.34
2022-08-09T18:44:55.511Z,98756.84
2022-08-09T18:49:02.065Z,98747.44
2022-08-09T18:53:04.718Z,98751.34
2022-08-09T18:57:15.578Z,98764.53
2022-08-09T19:01:17.682Z,98765.84
2022-08-09T19:05:41.379Z,98764.03
2022-08-09T19:10:14.280Z,98778.59
2022-08-09T19:14:07.745Z,98780.00
2022-08-09T19:18:17.105Z,98784.56
2022-08-09T19:22:35.182Z,98794.97
2022-08-09T19:26:38.370Z,98792.28
2022-08-09T19:30:44.615Z,98792.34
2022-08-09T19:34:52.613Z,98796.38
2022-08-09T19:38:56.049Z,98800.31
2022-08-09T19:42:58.096Z,98801.41
2022-08-09T19:47:01.959Z,98817.41
2022-08-09T19:51:04.607Z,98809.13
2022-08-09T19:55:07.318Z,98823.31
2022-08-09T19:59:39.786Z,98823.31
2022-08-09T20:04:18.640Z,98830.66
2022-08-09T20:07:59.422Z,98838.06
2022-08-09T20:12:02.944Z,98836.34
2022-08-09T20:16:34.154Z,98837.25
2022-08-09T20:20:30.706Z,98842.31
2022-08-09T20:24:34.241Z,98840.94
2022-08-09T20:28:48.059Z,98839.81
2022-08-09T20:32:52.651Z,98843.97
2022-08-09T20:36:55.388Z,98851.06
2022-08-09T20:40:57.466Z,98854.28
2022-08-09T20:45:56.072Z,98855.47
2022-08-09T20:49:23.238Z,98848.38
2022-08-09T20:53:36.311Z,98851.28
2022-08-09T20:58:08.249Z,98851.41
2022-08-09T21:02:02.823Z,98857.44
2022-08-09T21:06:05.039Z,98862.75
2022-08-09T21:10:07.674Z,98858.06
2022-08-09T21:14:10.016Z,98857.41
2022-08-09T21:18:25.393Z,98857.56
2022-08-09T21:22:38.451Z,98859.41
2022-08-09T21:26:41.396Z,98865.97
2022-08-09T21:30:44.278Z,98865.81
2022-08-09T21:34:49.106Z,98861.97
2022-08-09T21:38:58.012Z,98854.03
2022-08-09T21:43:01.190Z,98866.09
2022-08-09T21:47:07.722Z,98865.97
2022-08-09T21:51:13.439Z,98873.84
2022-08-09T21:55:20.651Z,98869.28
2022-08-09T21:59:23.242Z,98869.09
2022-08-09T22:03:27.887Z,98875.13
2022-08-09T22:07:41.549Z,98877.97
2022-08-09T22:12:18.165Z,98883.53
2022-08-09T22:16:14.835Z,98887.00
2022-08-09T22:20:21.964Z,98885.94
2022-08-09T22:24:29.537Z,98882.50
2022-08-09T22:28:33.219Z,98884.72
2022-08-09T22:32:35.441Z,98873.44
2022-08-09T22:36:46.108Z,98881.47
2022-08-09T22:40:57.583Z,98888.91
2022-08-09T22:48:12.116Z,98887.16
2022-08-09T22:49:23.512Z,98879.88
2022-08-09T22:53:25.629Z,98892.47
2022-08-09T22:57:36.493Z,98887.91
2022-08-09T23:01:41.642Z,98892.00
2022-08-09T23:05:45.853Z,98889.53
2022-08-09T23:09:48.097Z,98888.56
2022-08-09T23:13:52.825Z,98899.09
2022-08-09T23:17:55.849Z,98880.22
2022-08-09T23:21:57.936Z,98883.22
2022-08-09T23:26:00.794Z,98880.47
2022-08-09T23:30:04.040Z,98883.38
2022-08-09T23:34:06.148Z,98870.06
2022-08-09T23:38:08.395Z,98875.31
2022-08-09T23:42:10.427Z,98878.53
2022-08-09T23:46:12.552Z,98885.00
2022-08-09T23:50:14.568Z,98881.06
2022-08-09T23:54:16.600Z,98880.69
2022-08-09T23:58:27.540Z,98876.88
